TimeEST,TemperatureF,Dew PointF,Humidity,Sea Level PressureIn,VisibilityMPH,Wind Direction,Wind SpeedMPH,Gust SpeedMPH,PrecipitationIn,Events,Conditions,WindDirDegrees,DateUTC
12:15 AM,32.0,24.8,75,29.81,10.0,WSW,5.8,-,N/A,,Overcast,240,2011-12-22 05:15:00
12:35 AM,32.0,24.8,75,29.81,10.0,West,5.8,-,N/A,,Overcast,260,2011-12-22 05:35:00
12:55 AM,32.0,24.8,75,29.82,10.0,WSW,5.8,-,N/A,,Overcast,250,2011-12-22 05:55:00
1:15 AM,32.0,24.8,75,29.83,10.0,WSW,6.9,-,N/A,,Overcast,250,2011-12-22 06:15:00
1:35 AM,32.0,24.8,75,29.83,10.0,West,5.8,-,N/A,,Overcast,260,2011-12-22 06:35:00
1:55 AM,32.0,24.8,75,29.85,10.0,West,8.1,-,N/A,,Overcast,260,2011-12-22 06:55:00
2:15 AM,32.0,24.8,75,29.86,10.0,West,6.9,-,N/A,,Overcast,270,2011-12-22 07:15:00
2:35 AM,32.0,24.8,75,29.87,10.0,West,5.8,-,N/A,,Overcast,260,2011-12-22 07:35:00
2:55 AM,32.0,24.8,75,29.87,10.0,West,6.9,-,N/A,,Overcast,260,2011-12-22 07:55:00
3:15 AM,32.0,26.6,80,29.88,10.0,West,8.1,-,N/A,,Overcast,260,2011-12-22 08:15:00
3:35 AM,32.0,26.6,80,29.89,10.0,WSW,5.8,-,N/A,,Overcast,250,2011-12-22 08:35:00
3:55 AM,32.0,26.6,80,29.90,10.0,WSW,5.8,-,N/A,,Overcast,250,2011-12-22 08:55:00
4:55 AM,32.0,26.6,80,29.91,10.0,West,5.8,-,N/A,,Overcast,270,2011-12-22 09:55:00
5:15 AM,32.0,26.6,80,29.90,10.0,West,8.1,-,N/A,,Overcast,270,2011-12-22 10:15:00
5:35 AM,32.0,26.6,80,29.91,10.0,West,6.9,-,N/A,,Overcast,270,2011-12-22 10:35:00
5:55 AM,32.0,26.6,80,29.92,10.0,West,6.9,-,N/A,,Overcast,260,2011-12-22 10:55:00
6:15 AM,32.0,26.6,80,29.93,10.0,West,8.1,-,N/A,,Overcast,270,2011-12-22 11:15:00
6:35 AM,32.0,26.6,80,29.93,10.0,West,8.1,-,N/A,,Overcast,270,2011-12-22 11:35:00
6:55 AM,32.0,26.6,80,29.94,10.0,West,6.9,-,N/A,,Overcast,260,2011-12-22 11:55:00
7:15 AM,30.2,26.6,86,29.96,10.0,West,6.9,-,N/A,,Mostly Cloudy,260,2011-12-22 12:15:00
7:35 AM,32.0,26.6,80,29.97,10.0,West,10.4,-,N/A,,Overcast,270,2011-12-22 12:35:00
7:55 AM,32.0,26.6,80,29.98,10.0,West,8.1,-,N/A,,Overcast,270,2011-12-22 12:55:00
8:15 AM,32.0,26.6,80,29.99,3.0,NW,15.0,23.0,N/A,,Mostly Cloudy,310,2011-12-22 13:15:00
8:35 AM,32.0,24.8,75,30.01,10.0,WNW,15.0,-,N/A,,Overcast,300,2011-12-22 13:35:00
8:55 AM,30.2,24.8,80,30.01,10.0,WNW,12.7,17.3,N/A,,Overcast,290,2011-12-22 13:55:00
9:15 AM,30.2,24.8,80,30.03,10.0,WNW,11.5,-,N/A,,Overcast,300,2011-12-22 14:15:00
9:35 AM,30.2,23.0,75,30.04,10.0,NW,12.7,18.4,N/A,,Overcast,310,2011-12-22 14:35:00
10:35 AM,28.4,19.4,69,30.05,10.0,NNW,21.9,31.1,N/A,,Overcast,330,2011-12-22 15:35:00
10:55 AM,28.4,17.6,64,30.07,10.0,NNW,21.9,28.8,N/A,,Overcast,340,2011-12-22 15:55:00
11:15 AM,28.4,17.6,64,30.07,10.0,NNW,18.4,27.6,N/A,,Overcast,340,2011-12-22 16:15:00
11:35 AM,28.4,17.6,64,30.09,10.0,NNW,24.2,-,N/A,,Overcast,330,2011-12-22 16:35:00
11:55 AM,26.6,15.8,64,30.09,10.0,NW,21.9,26.5,N/A,,Overcast,310,2011-12-22 16:55:00
12:15 PM,28.4,15.8,59,30.08,10.0,NW,24.2,27.6,N/A,,Overcast,320,2011-12-22 17:15:00
12:35 PM,26.6,15.8,64,30.08,10.0,NNW,24.2,28.8,N/A,,Overcast,330,2011-12-22 17:35:00
12:55 PM,26.6,15.8,64,30.09,10.0,NW,17.3,25.3,N/A,,Overcast,310,2011-12-22 17:55:00
1:15 PM,26.6,15.8,64,30.08,10.0,NW,16.1,20.7,N/A,,Overcast,320,2011-12-22 18:15:00
1:35 PM,26.6,14.0,59,30.09,10.0,NW,20.7,27.6,N/A,,Overcast,320,2011-12-22 18:35:00
1:55 PM,24.8,14.0,64,30.10,10.0,NNW,18.4,26.5,N/A,,Overcast,340,2011-12-22 18:55:00
2:15 PM,24.8,12.2,59,30.11,10.0,NNW,17.3,-,N/A,,Overcast,330,2011-12-22 19:15:00
2:35 PM,24.8,12.2,59,30.13,10.0,NNW,18.4,26.5,N/A,,Overcast,330,2011-12-22 19:35:00
2:55 PM,23.0,12.2,63,30.13,10.0,NNW,17.3,24.2,N/A,,Overcast,340,2011-12-22 19:55:00
3:15 PM,23.0,12.2,63,30.13,10.0,NNW,20.7,25.3,N/A,,Overcast,330,2011-12-22 20:15:00
4:15 PM,21.2,10.4,63,30.12,10.0,NNW,24.2,28.8,N/A,,Overcast,330,2011-12-22 21:15:00
4:35 PM,21.2,10.4,63,30.13,10.0,NW,18.4,-,N/A,,Overcast,320,2011-12-22 21:35:00
4:55 PM,21.2,10.4,63,30.13,10.0,NNW,19.6,26.5,N/A,,Overcast,330,2011-12-22 21:55:00
5:15 PM,21.2,10.4,63,30.14,10.0,NNW,12.7,19.6,N/A,,Overcast,330,2011-12-22 22:15:00
5:35 PM,21.2,12.2,68,30.15,10.0,NNW,16.1,20.7,N/A,,Overcast,340,2011-12-22 22:35:00
5:55 PM,21.2,10.4,63,30.16,10.0,North,11.5,23.0,N/A,,Overcast,350,2011-12-22 22:55:00
6:15 PM,21.2,10.4,63,30.17,10.0,NNW,18.4,24.2,N/A,,Overcast,340,2011-12-22 23:15:00
6:35 PM,21.2,10.4,63,30.18,10.0,NNW,13.8,21.9,N/A,,Overcast,330,2011-12-22 23:35:00
6:55 PM,21.2,10.4,63,30.18,8.0,North,11.5,-,N/A,,Overcast,350,2011-12-22 23:55:00
7:35 PM,19.4,10.4,68,30.20,10.0,North,11.5,-,N/A,,Overcast,10,2011-12-23 00:35:00
7:55 PM,19.4,8.6,63,30.20,10.0,NNE,10.4,-,N/A,,Overcast,20,2011-12-23 00:55:00
8:15 PM,19.4,8.6,63,30.20,10.0,North,9.2,-,N/A,,Overcast,10,2011-12-23 01:15:00
8:35 PM,17.6,8.6,68,30.20,10.0,NNE,10.4,-,N/A,,Overcast,30,2011-12-23 01:35:00
8:55 PM,17.6,6.8,63,30.20,10.0,NNE,6.9,-,N/A,,Overcast,30,2011-12-23 01:55:00
9:55 PM,15.8,6.8,68,30.20,10.0,NE,11.5,-,N/A,,Overcast,40,2011-12-23 02:55:00
10:15 PM,15.8,6.8,68,30.20,8.0,NNE,9.2,-,N/A,,Overcast,30,2011-12-23 03:15:00
10:35 PM,15.8,6.8,68,30.19,10.0,NNE,6.9,-,N/A,,Overcast,30,2011-12-23 03:35:00
10:55 PM,15.8,6.8,68,30.20,10.0,NNE,6.9,-,N/A,,Overcast,30,2011-12-23 03:55:00
11:15 PM,15.8,5.0,62,30.19,10.0,NNE,6.9,-,N/A,,Overcast,30,2011-12-23 04:15:00
11:35 PM,14.0,6.8,73,30.20,10.0,North,3.5,-,N/A,,Overcast,10,2011-12-23 04:35:00